Time;durP1;ratioP1;P1;durP2;ratioP2;P2;SDS_P1;SDS_P2;PMS_P1;PMS_P2;Temp;Humidity;BMP_temperature;BMP_pressure;BME280_temperature;BME280_humidity;BME280_pressure;Samples;Min_cycle;Max_cycle;Signal;HPM_P1;HPM_P2
2023/07/04 00:01:10;;;;;;;0.30;0.30;;;;;;;7.87;100.00;100481.25;5019135;28;20029;-75
2023/07/04 00:03:36;;;;;;;0.63;0.40;;;;;;;7.79;100.00;100481.25;5051656;28;20035;-75
2023/07/04 00:06:04;;;;;;;0.30;0.30;;;;;;;7.69;100.00;100483.22;5022270;28;20033;-75
2023/07/04 00:08:33;;;;;;;0.30;0.30;;;;;;;7.51;100.00;100482.50;5056057;28;20041;-74
2023/07/04 00:11:04;;;;;;;0.30;0.30;;;;;;;7.43;100.00;100480.66;5040916;28;20554;-75
2023/07/04 00:13:31;;;;;;;0.30;0.30;;;;;;;7.29;100.00;100462.56;5023220;28;20048;-76
2023/07/04 00:15:57;;;;;;;0.30;0.30;;;;;;;7.21;100.00;100466.03;5023271;28;20048;-75
2023/07/04 00:18:27;;;;;;;0.38;0.35;;;;;;;7.18;100.00;100474.38;5056322;28;20068;-75
2023/07/04 00:20:59;;;;;;;0.30;0.30;;;;;;;7.12;100.00;100472.34;5040215;28;20145;-76
2023/07/04 00:23:24;;;;;;;0.30;0.30;;;;;;;7.16;100.00;100469.19;5022904;28;20459;-76
2023/07/04 00:25:55;;;;;;;0.28;0.28;;;;;;;7.22;100.00;100467.69;5039669;28;20434;-75
2023/07/04 00:28:23;;;;;;;0.32;0.32;;;;;;;7.37;100.00;100460.75;5023440;28;20499;-76
2023/07/04 00:30:52;;;;;;;0.63;0.43;;;;;;;7.51;100.00;100463.78;5006884;28;20041;-76
2023/07/04 00:33:25;;;;;;;1.33;0.57;;;;;;;7.64;100.00;100467.66;5023149;28;20483;-77
2023/07/04 00:36:11;;;;;;;0.30;0.30;;;;;;;7.71;100.00;100462.50;5022906;28;20166;-75
2023/07/04 00:38:42;;;;;;;1.27;0.57;;;;;;;7.72;100.00;100456.97;5039496;28;20090;-75
2023/07/04 00:41:20;;;;;;;0.30;0.30;;;;;;;7.71;100.00;100463.34;5024318;28;20036;-75
2023/07/04 00:44:14;;;;;;;1.13;0.50;;;;;;;7.82;100.00;100462.19;5039122;28;20036;-75
2023/07/04 00:47:10;;;;;;;0.30;0.30;;;;;;;7.93;100.00;100467.22;5038893;28;20095;-75
2023/07/04 00:49:48;;;;;;;0.73;0.43;;;;;;;7.97;100.00;100472.25;5039794;28;20083;-75
2023/07/04 00:52:25;;;;;;;0.30;0.30;;;;;;;8.09;100.00;100473.59;5024220;28;20124;-76
2023/07/04 00:54:54;;;;;;;1.15;0.50;;;;;;;8.15;100.00;100470.25;5007347;28;20091;-75
2023/07/04 00:57:25;;;;;;;0.47;0.40;;;;;;;8.14;100.00;100473.91;5022107;28;20036;-75
2023/07/04 00:59:57;;;;;;;0.38;0.38;;;;;;;8.11;100.00;100464.38;5022509;28;20037;-75
2023/07/04 01:02:31;;;;;;;0.63;0.40;;;;;;;8.08;100.00;100458.53;5039891;28;20031;-75
2023/07/04 01:04:57;;;;;;;0.30;0.30;;;;;;;8.08;100.00;100459.38;5022338;28;20035;-74
2023/07/04 01:07:25;;;;;;;0.65;0.43;;;;;;;8.09;100.00;100455.66;5022137;28;20075;-75
2023/07/04 01:10:16;;;;;;;0.35;0.35;;;;;;;8.19;100.00;100452.00;5055146;28;20028;-76
2023/07/04 01:12:43;;;;;;;0.30;0.30;;;;;;;8.21;100.00;100458.88;5023472;28;20114;-75
2023/07/04 01:15:10;;;;;;;0.30;0.30;;;;;;;8.23;100.00;100456.88;5021980;28;20041;-75
2023/07/04 01:17:36;;;;;;;0.32;0.30;;;;;;;8.18;100.00;100448.50;5037939;28;20059;-74
2023/07/04 01:20:09;;;;;;;0.30;0.30;;;;;;;8.17;100.00;100451.31;5021964;28;20041;-75
2023/07/04 01:22:56;;;;;;;0.30;0.30;;;;;;;8.15;100.00;100457.69;5038457;28;20037;-74
2023/07/04 01:25:49;;;;;;;1.17;0.55;;;;;;;8.16;100.00;100450.50;5021708;28;20033;-75
2023/07/04 01:28:17;;;;;;;;;;;;;;;8.34;100.00;100459.19;5039112;28;20043;-75
2023/07/04 01:30:46;;;;;;;0.30;0.30;;;;;;;8.41;100.00;100442.47;5070549;28;20278;-74
2023/07/04 01:33:15;;;;;;;0.30;0.30;;;;;;;8.39;100.00;100448.00;5037842;28;20029;-74
2023/07/04 01:35:44;;;;;;;0.75;0.40;;;;;;;8.32;100.00;100450.47;5021685;28;20357;-74
2023/07/04 01:38:14;;;;;;;0.45;0.38;;;;;;;8.24;100.00;100447.81;5055182;28;20434;-74
2023/07/04 01:40:42;;;;;;;0.30;0.30;;;;;;;8.10;100.00;100451.19;5021667;28;20025;-74
2023/07/04 01:43:10;;;;;;;0.47;0.40;;;;;;;7.93;100.00;100445.78;5037668;28;20029;-74
2023/07/04 01:45:38;;;;;;;0.85;0.50;;;;;;;7.72;100.00;100432.88;5054246;28;20021;-73
2023/07/04 01:48:04;;;;;;;0.40;0.40;;;;;;;7.62;100.00;100437.56;5021455;28;20459;-75
2023/07/04 01:50:32;;;;;;;0.30;0.30;;;;;;;7.46;100.00;100432.16;5055638;28;20035;-74
2023/07/04 01:53:00;;;;;;;0.75;0.50;;;;;;;7.28;100.00;100440.34;5038160;28;20033;-75
2023/07/04 01:55:26;;;;;;;0.30;0.30;;;;;;;7.11;100.00;100433.25;5055411;28;20033;-74
2023/07/04 01:57:55;;;;;;;0.30;0.30;;;;;;;6.96;100.00;100424.97;5037878;28;20119;-74
2023/07/04 02:00:22;;;;;;;0.40;0.40;;;;;;;6.75;100.00;100412.03;5053953;28;20040;-76
2023/07/04 02:02:47;;;;;;;0.30;0.30;;;;;;;6.96;100.00;100425.84;5021093;28;20094;-74
2023/07/04 02:05:15;;;;;;;1.05;0.57;;;;;;;7.15;100.00;100424.75;5055426;28;20037;-74
2023/07/04 02:07:43;;;;;;;0.40;0.40;;;;;;;7.44;100.00;100410.94;5055354;28;20082;-74
2023/07/04 02:10:11;;;;;;;0.30;0.30;;;;;;;7.79;100.00;100426.88;5054933;28;20035;-75
2023/07/04 02:12:39;;;;;;;0.30;0.30;;;;;;;8.04;100.00;100406.31;5037082;28;20041;-74
2023/07/04 02:15:07;;;;;;;0.30;0.30;;;;;;;8.14;100.00;100415.00;5037365;28;20025;-73
2023/07/04 02:17:35;;;;;;;0.30;0.30;;;;;;;8.21;100.00;100416.00;5020842;28;20032;-75
2023/07/04 02:20:01;;;;;;;0.30;0.30;;;;;;;8.20;100.00;100418.84;5053979;28;20041;-74
2023/07/04 02:22:27;;;;;;;0.30;0.30;;;;;;;8.25;100.00;100416.50;5053548;28;20037;-75
2023/07/04 02:24:56;;;;;;;0.30;0.30;;;;;;;8.37;100.00;100418.66;5053406;28;20028;-75
2023/07/04 02:27:24;;;;;;;0.32;0.32;;;;;;;8.53;100.00;100430.41;5052711;28;20037;-74
2023/07/04 02:29:53;;;;;;;0.30;0.30;;;;;;;8.58;100.00;100411.97;5053357;28;20025;-73
2023/07/04 02:32:19;;;;;;;0.30;0.30;;;;;;;8.58;100.00;100406.59;5037876;28;20051;-74
2023/07/04 02:34:45;;;;;;;0.30;0.30;;;;;;;8.65;100.00;100402.22;5053212;28;20108;-73
2023/07/04 02:37:10;;;;;;;1.65;0.63;;;;;;;8.64;100.00;100397.88;5053500;28;20033;-74
2023/07/04 02:39:36;;;;;;;0.30;0.30;;;;;;;8.68;100.00;100412.63;5054338;28;20537;-73
2023/07/04 02:42:04;;;;;;;0.30;0.30;;;;;;;8.69;100.00;100414.28;5053154;28;20025;-75
2023/07/04 02:44:33;;;;;;;0.30;0.30;;;;;;;8.76;100.00;100415.28;5053034;28;20182;-75
2023/07/04 02:46:58;;;;;;;0.25;0.25;;;;;;;8.79;100.00;100414.91;5053273;28;20082;-75
2023/07/04 02:49:26;;;;;;;0.63;0.38;;;;;;;8.89;100.00;100425.44;5036387;28;20125;-76
2023/07/04 02:51:55;;;;;;;0.85;0.43;;;;;;;8.91;100.00;100401.13;5036463;28;20035;-75
2023/07/04 02:54:20;;;;;;;1.05;0.50;;;;;;;9.02;100.00;100414.16;5036640;28;20033;-76
2023/07/04 02:56:49;;;;;;;0.30;0.30;;;;;;;8.99;100.00;100404.59;5036622;28;20037;-73
2023/07/04 02:59:19;;;;;;;0.32;0.30;;;;;;;9.06;100.00;100402.06;5036429;28;20029;-75
2023/07/04 03:01:47;;;;;;;0.30;0.30;;;;;;;9.02;100.00;100381.97;5020198;28;20025;-75
2023/07/04 03:04:16;;;;;;;0.30;0.30;;;;;;;9.08;100.00;100396.56;5036339;28;20099;-73
2023/07/04 03:06:41;;;;;;;0.30;0.30;;;;;;;9.04;100.00;100385.31;5052671;28;20115;-74
2023/07/04 03:09:07;;;;;;;0.30;0.30;;;;;;;9.04;100.00;100388.00;5052408;28;20456;-73
2023/07/04 03:11:33;;;;;;;0.30;0.30;;;;;;;9.02;100.00;100390.00;5036110;28;20509;-75
2023/07/04 03:14:01;;;;;;;1.10;0.50;;;;;;;9.05;100.00;100386.16;5036474;28;20033;-74
2023/07/04 03:16:29;;;;;;;0.30;0.30;;;;;;;8.99;100.00;100382.31;5052481;28;20483;-74
2023/07/04 03:18:58;;;;;;;0.38;0.38;;;;;;;9.03;100.00;100379.13;5019668;28;20098;-74
2023/07/04 03:21:26;;;;;;;0.30;0.30;;;;;;;9.09;100.00;100385.63;5052721;28;20025;-74
2023/07/04 03:23:52;;;;;;;0.90;0.50;;;;;;;9.08;100.00;100380.47;5036185;28;20041;-75
2023/07/04 03:26:20;;;;;;;0.30;0.30;;;;;;;9.07;100.00;100374.22;5035775;28;20039;-74
2023/07/04 03:28:46;;;;;;;0.32;0.30;;;;;;;8.98;100.00;100369.94;5052361;28;20471;-74
2023/07/04 03:31:11;;;;;;;0.30;0.30;;;;;;;8.84;100.00;100360.78;5052568;28;20068;-74
2023/07/04 03:33:37;;;;;;;0.30;0.30;;;;;;;8.91;100.00;100371.63;5036189;28;20099;-77
2023/07/04 03:36:03;;;;;;;0.50;0.35;;;;;;;8.96;100.00;100371.94;5019671;28;20036;-73
2023/07/04 03:38:29;;;;;;;0.30;0.30;;;;;;;9.00;100.00;100367.91;5019422;28;20033;-74
2023/07/04 03:40:54;;;;;;;0.30;0.30;;;;;;;9.02;100.00;100372.09;5036048;28;20041;-73
2023/07/04 03:43:21;;;;;;;0.30;0.30;;;;;;;9.04;100.00;100369.22;5035921;28;20107;-74
2023/07/04 03:45:47;;;;;;;1.75;0.68;;;;;;;9.01;100.00;100359.69;5035520;28;20104;-74
2023/07/04 03:48:15;;;;;;;0.30;0.30;;;;;;;9.06;100.00;100367.22;5052305;28;20116;-75
2023/07/04 03:50:43;;;;;;;0.28;0.28;;;;;;;9.06;100.00;100361.84;5035910;28;20037;-76
2023/07/04 03:53:09;;;;;;;0.45;0.45;;;;;;;9.06;100.00;100361.84;5051808;28;20082;-74
2023/07/04 03:55:35;;;;;;;0.35;0.30;;;;;;;9.05;100.00;100354.81;5051939;28;20029;-75
2023/07/04 03:58:03;;;;;;;0.30;0.30;;;;;;;9.05;100.00;100353.97;5035539;28;20074;-76
2023/07/04 04:00:29;;;;;;;0.30;0.30;;;;;;;9.09;100.00;100360.66;5035545;28;20387;-74
2023/07/04 04:02:54;;;;;;;0.40;0.40;;;;;;;9.12;100.00;100352.25;5053153;28;20032;-75
2023/07/04 04:05:20;;;;;;;0.65;0.40;;;;;;;9.11;100.00;100356.78;5019049;28;20040;-74
2023/07/04 04:07:49;;;;;;;1.33;0.50;;;;;;;9.09;100.00;100350.75;5051829;28;20091;-75
2023/07/04 04:10:20;;;;;;;0.40;0.40;;;;;;;9.09;100.00;100361.50;5019047;28;20040;-74
2023/07/04 04:12:49;;;;;;;0.30;0.30;;;;;;;9.10;100.00;100360.47;5051795;28;20025;-74
2023/07/04 04:15:15;;;;;;;0.70;0.40;;;;;;;9.08;100.00;100354.47;5018677;28;20033;-76
2023/07/04 04:17:40;;;;;;;1.67;0.60;;;;;;;9.20;100.00;100366.44;5018324;28;20045;-74
2023/07/04 04:20:10;;;;;;;0.65;0.45;;;;;;;9.18;100.00;100371.19;5035309;28;20032;-74
2023/07/04 04:22:37;;;;;;;0.50;0.40;;;;;;;9.20;100.00;100371.81;5018770;28;20033;-75
2023/07/04 04:25:03;;;;;;;1.05;0.50;;;;;;;9.20;100.00;100371.81;5018540;28;20049;-74
2023/07/04 04:27:30;;;;;;;1.08;0.50;;;;;;;9.18;100.00;100364.97;5051791;28;20053;-74
2023/07/04 04:30:05;;;;;;;0.63;0.40;;;;;;;9.12;100.00;100354.94;5035882;28;20029;-74
2023/07/04 04:32:37;;;;;;;0.47;0.38;;;;;;;9.03;100.00;100351.47;5036349;28;20043;-74
2023/07/04 04:35:08;;;;;;;0.50;0.40;;;;;;;8.95;100.00;100354.19;5019265;28;20033;-76
2023/07/04 04:37:34;;;;;;;0.95;0.50;;;;;;;8.84;100.00;100347.38;5019023;28;20033;-75
2023/07/04 04:40:00;;;;;;;0.30;0.30;;;;;;;8.68;100.00;100348.28;5035158;28;20037;-74
2023/07/04 04:42:27;;;;;;;0.40;0.40;;;;;;;8.52;100.00;100338.47;5051764;28;20025;-74
2023/07/04 04:44:56;;;;;;;0.65;0.40;;;;;;;8.63;100.00;100350.66;5018551;28;20067;-74
2023/07/04 04:47:24;;;;;;;0.63;0.40;;;;;;;8.63;100.00;100344.47;5051717;28;20046;-75
2023/07/04 04:49:51;;;;;;;0.63;0.40;;;;;;;8.65;100.00;100345.94;5018979;28;20032;-74
2023/07/04 04:52:23;;;;;;;1.10;0.50;;;;;;;8.65;100.00;100337.88;5038527;28;20033;-75
2023/07/04 04:54:48;;;;;;;0.40;0.40;;;;;;;8.80;100.00;100346.03;5056125;28;20033;-75
2023/07/04 04:57:18;;;;;;;0.38;0.38;;;;;;;8.90;100.00;100349.34;5039124;28;20103;-74
2023/07/04 04:59:45;;;;;;;0.40;0.40;;;;;;;8.89;100.00;100349.53;5023155;28;20029;-75
2023/07/04 05:02:15;;;;;;;0.30;0.30;;;;;;;8.84;100.00;100346.53;5038352;28;20028;-74
2023/07/04 05:04:42;;;;;;;0.30;0.30;;;;;;;8.85;100.00;100345.53;5055353;28;20035;-74
2023/07/04 05:07:08;;;;;;;0.30;0.30;;;;;;;8.91;100.00;100342.16;5038821;28;20045;-74
2023/07/04 05:09:36;;;;;;;0.38;0.38;;;;;;;8.85;100.00;100334.81;5055091;28;20029;-75
2023/07/04 05:12:02;;;;;;;0.32;0.30;;;;;;;8.76;100.00;100347.41;5054978;28;20166;-74
2023/07/04 05:14:30;;;;;;;0.40;0.40;;;;;;;8.52;100.00;100319.72;5054639;28;20048;-74
2023/07/04 05:16:55;;;;;;;0.30;0.30;;;;;;;8.65;100.00;100337.88;5054805;28;20025;-74
2023/07/04 05:19:21;;;;;;;0.40;0.40;;;;;;;8.64;100.00;100340.75;5054993;28;20037;-74
2023/07/04 05:21:50;;;;;;;0.88;0.50;;;;;;;8.57;100.00;100330.75;5055638;28;20056;-74
2023/07/04 05:24:17;;;;;;;0.50;0.40;;;;;;;8.51;100.00;100327.91;5054531;28;20463;-74
2023/07/04 05:26:43;;;;;;;1.13;0.50;;;;;;;8.49;100.00;100325.38;5021857;28;20056;-74
2023/07/04 05:29:09;;;;;;;0.65;0.40;;;;;;;8.49;100.00;100321.88;5021776;28;20033;-74
2023/07/04 05:31:34;;;;;;;0.30;0.30;;;;;;;8.51;100.00;100331.41;5055544;28;20491;-75
2023/07/04 05:34:04;;;;;;;0.57;0.55;;;;;;;8.93;100.00;100324.88;5054821;28;20118;-74
2023/07/04 05:36:33;;;;;;;1.38;0.60;;;;;;;9.13;100.00;100332.47;5021511;28;20459;-75
2023/07/04 05:39:00;;;;;;;0.98;0.57;;;;;;;9.06;100.00;100321.63;5054163;28;20029;-74
2023/07/04 05:41:27;;;;;;;0.95;0.60;;;;;;;10.43;100.00;100330.56;5054471;28;20040;-74
2023/07/04 05:43:55;;;;;;;0.55;0.47;;;;;;;11.39;100.00;100333.97;5021669;28;20033;-76
2023/07/04 05:46:21;;;;;;;0.43;0.40;;;;;;;12.25;100.00;100328.53;5037976;28;20033;-76
2023/07/04 05:48:50;;;;;;;0.75;0.47;;;;;;;11.54;100.00;100333.09;5021215;28;20387;-74
2023/07/04 05:51:16;;;;;;;1.02;0.55;;;;;;;11.12;100.00;100326.66;5021450;28;20530;-76
2023/07/04 05:53:43;;;;;;;0.30;0.30;;;;;;;10.76;100.00;100317.53;5021153;28;20048;-74
2023/07/04 05:56:11;;;;;;;2.63;0.82;;;;;;;10.52;100.00;100334.81;5053663;28;20094;-76
2023/07/04 05:58:39;;;;;;;0.68;0.40;;;;;;;10.25;100.00;100335.44;5053959;28;20028;-74
2023/07/04 06:01:10;;;;;;;0.35;0.35;;;;;;;9.98;100.00;100323.44;5021263;28;20099;-74
2023/07/04 06:03:37;;;;;;;0.75;0.40;;;;;;;9.85;100.00;100324.88;5037050;28;20029;-74
2023/07/04 06:06:07;;;;;;;0.30;0.30;;;;;;;9.88;100.00;100319.16;5053717;28;20494;-75
2023/07/04 06:08:36;;;;;;;0.40;0.40;;;;;;;10.06;100.00;100326.88;5021045;28;20040;-75
2023/07/04 06:11:04;;;;;;;0.45;0.40;;;;;;;10.16;100.00;100328.44;5020830;28;20449;-75
2023/07/04 06:13:30;;;;;;;0.73;0.40;;;;;;;10.06;100.00;100334.94;5020807;28;20116;-76
2023/07/04 06:15:57;;;;;;;1.42;0.60;;;;;;;10.02;100.00;100330.94;5020645;28;20127;-75
2023/07/04 06:18:23;;;;;;;1.13;0.60;;;;;;;9.94;100.00;100331.00;5020003;28;20052;-75
2023/07/04 06:20:51;;;;;;;0.77;0.43;;;;;;;9.91;100.00;100334.06;5020418;28;20029;-75
2023/07/04 06:23:20;;;;;;;0.95;0.52;;;;;;;9.90;100.00;100332.41;5055013;28;20122;-75
2023/07/04 06:25:46;;;;;;;0.40;0.40;;;;;;;11.04;100.00;100335.69;5020654;28;20037;-76
2023/07/04 06:28:12;;;;;;;1.73;0.68;;;;;;;10.97;100.00;100332.88;5004085;28;20139;-75
2023/07/04 06:30:41;;;;;;;1.67;0.70;;;;;;;11.08;100.00;100317.28;5004090;28;20475;-75
2023/07/04 06:33:07;;;;;;;0.98;0.60;;;;;;;11.89;100.00;100325.97;5036566;28;20613;-77
2023/07/04 06:35:33;;;;;;;0.77;0.50;;;;;;;12.12;100.00;100309.56;5020275;28;20044;-75
2023/07/04 06:38:03;;;;;;;0.47;0.47;;;;;;;12.84;100.00;100326.34;5053205;28;20029;-75
2023/07/04 06:40:28;;;;;;;0.88;0.63;;;;;;;13.40;100.00;100320.72;5053444;28;20060;-76
2023/07/04 06:42:57;;;;;;;1.35;0.68;;;;;;;14.66;100.00;100325.22;5020118;28;20114;-76
2023/07/04 06:45:22;;;;;;;0.93;0.70;;;;;;;15.88;100.00;100322.47;5020061;28;20041;-77
2023/07/04 06:47:48;;;;;;;0.85;0.60;;;;;;;16.69;100.00;100308.72;5053549;28;20391;-75
2023/07/04 06:50:14;;;;;;;1.55;0.80;;;;;;;17.23;100.00;100316.25;5036352;28;20394;-73
2023/07/04 06:52:39;;;;;;;0.45;0.45;;;;;;;17.77;100.00;100317.09;5036398;28;20025;-76
2023/07/04 06:55:05;;;;;;;0.40;0.40;;;;;;;18.31;100.00;100323.31;5020117;28;20467;-75
2023/07/04 06:57:31;;;;;;;0.57;0.52;;;;;;;18.82;100.00;100321.72;5052508;28;20029;-75
2023/07/04 06:59:58;;;;;;;1.02;0.60;;;;;;;19.22;99.98;100309.13;5052710;28;20043;-73
2023/07/04 07:02:26;;;;;;;0.57;0.57;;;;;;;19.79;100.00;100321.88;5052255;28;20029;-74
2023/07/04 07:04:54;;;;;;;0.50;0.50;;;;;;;20.32;100.00;100315.91;5052394;28;20029;-74
2023/07/04 07:07:19;;;;;;;0.50;0.50;;;;;;;20.66;95.74;100315.84;5019529;28;20383;-75
2023/07/04 07:09:48;;;;;;;0.47;0.47;;;;;;;20.73;93.09;100316.47;5035988;28;20029;-76
2023/07/04 07:12:13;;;;;;;0.50;0.50;;;;;;;20.49;92.45;100315.03;5036386;28;20090;-75
2023/07/04 07:14:39;;;;;;;1.95;0.90;;;;;;;20.66;95.74;100309.53;5051772;28;20041;-76
2023/07/04 07:17:06;;;;;;;0.50;0.50;;;;;;;20.83;92.54;100302.13;5036005;28;20028;-76
2023/07/04 07:19:40;;;;;;;0.75;0.60;;;;;;;21.08;92.73;100307.03;5036008;28;20036;-75
2023/07/04 07:22:08;;;;;;;0.60;0.60;;;;;;;21.13;92.58;100304.38;5036420;28;20056;-75
2023/07/04 07:24:34;;;;;;;0.50;0.50;;;;;;;21.25;89.87;100310.53;5019533;28;20033;-76
2023/07/04 07:27:00;;;;;;;0.50;0.50;;;;;;;21.36;90.67;100305.97;5052373;28;20082;-76
2023/07/04 07:29:26;;;;;;;0.50;0.50;;;;;;;21.49;92.83;100305.59;5019564;28;20033;-75
2023/07/04 07:31:52;;;;;;;0.60;0.60;;;;;;;21.64;88.48;100301.34;5019747;28;20383;-75
2023/07/04 07:34:18;;;;;;;0.63;0.60;;;;;;;21.55;87.29;100305.66;5019384;28;20036;-75
2023/07/04 07:36:45;;;;;;;0.50;0.50;;;;;;;21.33;88.38;100300.19;5035726;28;20040;-75
2023/07/04 07:39:14;;;;;;;0.70;0.70;;;;;;;21.27;89.79;100302.06;5019532;28;20052;-76
2023/07/04 07:41:43;;;;;;;1.15;0.80;;;;;;;21.41;89.90;100299.78;5019010;28;20024;-77
2023/07/04 07:44:10;;;;;;;0.57;0.57;;;;;;;21.67;90.97;100287.13;5052415;28;20472;-77
2023/07/04 07:46:36;;;;;;;0.50;0.50;;;;;;;21.96;87.63;100298.56;5035346;28;20106;-76
2023/07/04 07:49:02;;;;;;;0.82;0.82;;;;;;;21.94;88.08;100292.56;5052398;28;20051;-77
2023/07/04 07:51:28;;;;;;;4.55;1.52;;;;;;;22.05;88.84;100296.19;5052486;28;20025;-79
2023/07/04 07:53:55;;;;;;;3.88;1.40;;;;;;;22.06;90.78;100295.09;5035091;28;20029;-80
2023/07/04 07:56:25;;;;;;;2.47;1.27;;;;;;;22.59;85.64;100287.75;5050675;28;20029;-80
2023/07/04 07:58:51;;;;;;;3.25;1.90;;;;;;;22.96;84.20;100295.03;5051943;28;20171;-81
2023/07/04 08:01:26;;;;;;;1.00;0.90;;;;;;;22.46;83.77;100278.09;5018879;28;20098;-79
2023/07/04 08:03:52;;;;;;;6.00;1.30;;;;;;;22.89;88.46;100295.28;5018979;28;20032;-80
2023/07/04 08:06:47;;;;;;;4.32;1.50;;;;;;;21.93;90.13;100299.94;5034616;28;20041;-79
2023/07/04 08:09:16;;;;;;;3.15;1.13;;;;;;;19.18;100.00;100297.06;5050271;28;20037;-80
2023/07/04 08:11:42;;;;;;;3.83;1.38;;;;;;;20.61;97.04;100300.22;5018982;28;20040;-79
2023/07/04 08:14:10;;;;;;;5.05;1.70;;;;;;;20.56;94.67;100294.69;5019464;28;20461;-80
2023/07/04 08:16:53;;;;;;;1.65;1.38;;;;;;;21.99;90.39;100286.28;5034914;28;20033;-80
2023/07/04 08:19:24;;;;;;;5.15;1.73;;;;;;;22.57;85.41;100278.97;5018767;28;20074;-80
2023/07/04 08:21:49;;;;;;;5.65;1.98;;;;;;;22.90;85.30;100287.88;5051602;28;20028;-78
2023/07/04 08:24:16;;;;;;;3.40;1.20;;;;;;;23.33;83.44;100285.81;5051656;28;20078;-80
2023/07/04 08:26:46;;;;;;;3.25;1.55;;;;;;;23.59;82.58;100287.50;5054237;28;20036;-80
2023/07/04 08:29:12;;;;;;;3.10;1.60;;;;;;;23.80;80.26;100299.31;5055808;28;20033;-81
2023/07/04 08:31:38;;;;;;;6.10;1.83;;;;;;;23.98;79.79;100292.47;5055966;28;20037;-82
2023/07/04 08:34:05;;;;;;;12.15;3.30;;;;;;;23.74;81.62;100292.22;5022087;28;20025;-78
2023/07/04 08:36:32;;;;;;;4.97;1.60;;;;;;;22.85;84.46;100282.38;5055514;28;20086;-76
2023/07/04 08:39:02;;;;;;;4.60;1.30;;;;;;;21.66;90.71;100274.53;5055203;28;20033;-75
2023/07/04 08:41:38;;;;;;;10.25;2.78;;;;;;;23.93;87.26;100284.22;5056688;28;20035;-77
2023/07/04 08:44:46;;;;;;;5.28;1.95;;;;;;;25.13;79.77;100287.94;5055419;28;20028;-78
2023/07/04 08:47:14;;;;;;;4.28;1.73;;;;;;;24.23;80.01;100288.84;5021967;28;20040;-77
2023/07/04 08:49:50;;;;;;;4.38;1.90;;;;;;;22.79;88.37;100285.09;5006175;28;20064;-78
2023/07/04 08:52:44;;;;;;;4.40;1.45;;;;;;;20.95;100.00;100275.47;5054596;28;20033;-75
2023/07/04 08:55:14;;;;;;;4.38;1.77;;;;;;;19.58;100.00;100275.13;5055877;28;20072;-76
2023/07/04 08:57:52;;;;;;;2.65;1.30;;;;;;;18.72;100.00;100275.16;5055190;28;20029;-77
2023/07/04 09:00:28;;;;;;;2.83;1.50;;;;;;;18.10;100.00;100262.16;5055335;28;20033;-76
2023/07/04 09:02:57;;;;;;;2.97;1.52;;;;;;;17.94;100.00;100287.31;5054409;28;20025;-78
2023/07/04 09:05:56;;;;;;;3.65;1.35;;;;;;;18.48;100.00;100282.56;5056466;28;20037;-77
2023/07/04 09:08:47;;;;;;;3.78;1.90;;;;;;;19.74;100.00;100285.28;5021923;28;20044;-77
2023/07/04 09:11:14;;;;;;;3.55;1.73;;;;;;;19.58;100.00;100277.84;5038207;28;20029;-77
2023/07/04 09:14:12;;;;;;;2.22;1.35;;;;;;;21.24;99.88;100280.69;5055191;28;20029;-77
2023/07/04 09:16:44;;;;;;;2.60;1.77;;;;;;;23.13;86.24;100275.63;5054957;28;20028;-79
2023/07/04 09:19:12;;;;;;;4.00;1.85;;;;;;;24.84;77.52;100279.56;5022327;28;20029;-78
2023/07/04 09:21:42;;;;;;;1.48;1.25;;;;;;;26.24;71.67;100278.28;5054656;28;20460;-78
2023/07/04 09:24:08;;;;;;;2.50;1.50;;;;;;;27.26;64.51;100279.78;5054864;28;20107;-77
2023/07/04 09:26:55;;;;;;;2.75;1.23;;;;;;;25.82;62.89;100277.81;5054513;28;20427;-78
2023/07/04 09:29:24;;;;;;;2.83;1.48;;;;;;;24.23;65.12;100279.78;5038265;28;20029;-76
2023/07/04 09:32:13;;;;;;;3.67;1.65;;;;;;;24.52;69.75;100286.31;5038343;28;20557;-78
2023/07/04 09:34:47;;;;;;;2.50;1.50;;;;;;;25.45;67.68;100281.97;5036544;28;20476;-76
2023/07/04 09:37:18;;;;;;;1.33;0.80;;;;;;;24.91;65.09;100271.03;5037567;28;20048;-77
2023/07/04 09:39:54;;;;;;;3.00;1.40;;;;;;;23.96;70.16;100272.69;5054531;28;20041;-77
2023/07/04 09:42:24;;;;;;;2.55;1.30;;;;;;;25.89;64.80;100277.53;5037478;28;20100;-77
2023/07/04 09:44:53;;;;;;;2.95;1.10;;;;;;;25.11;62.71;100281.94;5037571;28;20472;-76
2023/07/04 09:47:29;;;;;;;4.00;1.45;;;;;;;25.61;62.26;100279.09;5054451;28;20488;-75
2023/07/04 09:50:16;;;;;;;2.35;0.90;;;;;;;25.21;60.21;100273.63;5038025;28;20028;-77
2023/07/04 09:52:42;;;;;;;1.17;0.90;;;;;;;22.69;65.01;100285.06;5053763;28;20533;-77
2023/07/04 09:55:08;;;;;;;2.63;1.30;;;;;;;19.99;69.92;100289.47;5021456;28;20115;-77
2023/07/04 09:57:34;;;;;;;2.22;1.10;;;;;;;18.16;78.44;100279.41;5037968;28;20416;-76
2023/07/04 10:00:18;;;;;;;2.42;1.20;;;;;;;17.27;86.24;100282.91;5021063;28;20091;-77
2023/07/04 10:02:56;;;;;;;2.35;1.17;;;;;;;17.08;91.26;100287.59;5021579;28;20037;-77
2023/07/04 10:05:31;;;;;;;1.98;1.00;;;;;;;17.34;92.40;100267.34;5021107;28;20068;-79
2023/07/04 10:08:07;;;;;;;1.55;1.25;;;;;;;18.06;92.01;100281.91;5054205;28;20037;-77
2023/07/04 10:11:01;;;;;;;3.95;1.58;;;;;;;19.40;89.75;100287.13;5054202;28;20032;-79
2023/07/04 10:13:36;;;;;;;1.20;1.00;;;;;;;19.90;82.83;100285.50;5019198;28;20048;-76
2023/07/04 10:16:24;;;;;;;3.75;1.20;;;;;;;20.48;80.46;100295.09;5053622;28;20546;-77
2023/07/04 10:18:49;;;;;;;2.88;1.00;;;;;;;20.52;79.03;100292.69;5006076;28;20036;-77
2023/07/04 10:21:15;;;;;;;3.40;1.35;;;;;;;19.58;79.16;100302.41;5020968;28;20390;-78
2023/07/04 10:23:41;;;;;;;1.00;0.70;;;;;;;18.57;78.25;100302.91;5054011;28;20032;-77
2023/07/04 10:26:08;;;;;;;1.70;0.93;;;;;;;18.15;78.95;100311.25;5020816;28;20033;-76
2023/07/04 10:28:34;;;;;;;1.00;0.85;;;;;;;17.36;85.55;100308.72;5053804;28;20031;-77
2023/07/04 10:31:06;;;;;;;1.90;0.80;;;;;;;16.35;100.00;100315.56;5036984;28;20037;-80
2023/07/04 10:34:09;;;;;;;3.05;1.33;;;;;;;15.51;100.00;100319.63;5037879;28;20068;-78
2023/07/04 10:36:36;;;;;;;0.45;0.45;;;;;;;14.99;100.00;100318.88;5036882;28;20123;-78
2023/07/04 10:39:13;;;;;;;0.60;0.60;;;;;;;14.61;100.00;100314.25;5020337;28;20360;-77
2023/07/04 10:42:10;;;;;;;0.68;0.43;;;;;;;14.33;100.00;100290.97;5020353;28;20037;-77
2023/07/04 10:44:39;;;;;;;0.43;0.40;;;;;;;14.35;100.00;100291.59;5042146;28;20459;-77
2023/07/04 10:47:29;;;;;;;0.40;0.40;;;;;;;14.61;100.00;100306.13;5020423;28;20037;-76
2023/07/04 10:49:59;;;;;;;0.40;0.40;;;;;;;15.00;100.00;100304.28;5052707;28;20029;-77
2023/07/04 10:52:33;;;;;;;1.25;0.60;;;;;;;15.57;100.00;100297.88;5036239;28;20068;-78
2023/07/04 10:55:00;;;;;;;0.50;0.50;;;;;;;16.39;100.00;100303.22;5053310;28;20151;-77
2023/07/04 10:57:42;;;;;;;0.50;0.50;;;;;;;17.03;100.00;100270.31;5052608;28;20024;-78
2023/07/04 11:00:29;;;;;;;0.40;0.40;;;;;;;17.93;100.00;100302.00;5020562;28;20464;-77
2023/07/04 11:03:00;;;;;;;0.40;0.40;;;;;;;18.04;100.00;100298.44;5035867;28;20037;-77
2023/07/04 11:05:41;;;;;;;0.93;0.60;;;;;;;18.27;100.00;100303.06;5053158;28;20033;-76
2023/07/04 11:08:29;;;;;;;0.57;0.57;;;;;;;18.66;100.00;100296.03;5019843;28;20044;-78
2023/07/04 11:11:05;;;;;;;0.52;0.50;;;;;;;18.84;100.00;100307.84;5036157;28;20047;-78
2023/07/04 11:13:31;;;;;;;0.40;0.40;;;;;;;19.02;100.00;100304.09;5052595;28;20471;-77
2023/07/04 11:16:03;;;;;;;0.50;0.50;;;;;;;19.04;100.00;100307.44;5035777;28;20040;-78
2023/07/04 11:18:40;;;;;;;0.50;0.50;;;;;;;19.11;100.00;100294.50;5036272;28;20025;-76
2023/07/04 11:21:07;;;;;;;2.53;0.93;;;;;;;19.11;100.00;100302.66;5035540;28;20539;-77
2023/07/04 11:23:56;;;;;;;0.30;0.30;;;;;;;18.20;100.00;100303.16;5036283;28;20037;-79
2023/07/04 11:27:01;;;;;;;9.73;9.15;;;;;;;16.90;100.00;100293.03;5035188;28;20060;-79
2023/07/04 11:29:46;;;;;;;0.30;0.30;;;;;;;16.11;100.00;100306.41;5052475;28;20041;-79
2023/07/04 11:32:22;;;;;;;0.30;0.30;;;;;;;15.63;100.00;100289.94;5035652;28;20518;-79
2023/07/04 11:34:53;;;;;;;0.50;0.40;;;;;;;15.07;100.00;100289.66;5052534;28;20131;-79
2023/07/04 11:37:31;;;;;;;0.40;0.38;;;;;;;14.93;100.00;100296.22;5052925;28;20127;-80
2023/07/04 11:40:04;;;;;;;1.10;0.57;;;;;;;14.99;100.00;100276.38;5035751;28;20025;-82